sensor_id;sensor_type;location;lat;lon;timestamp;temperature;humidity
52609;DHT22;38503;48.544;12.142;2022-12-07T00:01:32;3.30;99.90
52609;DHT22;38503;48.544;12.142;2022-12-07T00:04:00;3.20;99.90
52609;DHT22;38503;48.544;12.142;2022-12-07T00:06:36;3.30;99.90
52609;DHT22;38503;48.544;12.142;2022-12-07T00:09:06;3.20;99.90
52609;DHT22;38503;48.544;12.142;2022-12-07T00:11:33;3.10;99.90
52609;DHT22;38503;48.544;12.142;2022-12-07T00:14:02;3.10;99.90
52609;DHT22;38503;48.544;12.142;2022-12-07T00:16:32;3.00;99.90
52609;DHT22;38503;48.544;12.142;2022-12-07T00:18:59;3.00;99.90
52609;DHT22;38503;48.544;12.142;2022-12-07T00:21:32;3.00;99.90
52609;DHT22;38503;48.544;12.142;2022-12-07T00:23:59;3.00;99.90
52609;DHT22;38503;48.544;12.142;2022-12-07T00:26:29;3.00;99.90
52609;DHT22;38503;48.544;12.142;2022-12-07T00:28:59;3.10;99.90
52609;DHT22;38503;48.544;12.142;2022-12-07T00:31:32;3.10;99.90
52609;DHT22;38503;48.544;12.142;2022-12-07T00:34:01;3.10;99.90
52609;DHT22;38503;48.544;12.142;2022-12-07T00:36:28;3.10;99.90
52609;DHT22;38503;48.544;12.142;2022-12-07T00:38:57;3.10;99.90
52609;DHT22;38503;48.544;12.142;2022-12-07T00:41:27;3.10;99.90
52609;DHT22;38503;48.544;12.142;2022-12-07T00:43:54;3.10;99.90
52609;DHT22;38503;48.544;12.142;2022-12-07T00:46:21;3.10;99.90
52609;DHT22;38503;48.544;12.142;2022-12-07T00:48:49;3.10;99.90
52609;DHT22;38503;48.544;12.142;2022-12-07T00:51:18;3.10;99.90
52609;DHT22;38503;48.544;12.142;2022-12-07T00:53:46;3.00;99.90
52609;DHT22;38503;48.544;12.142;2022-12-07T00:56:15;3.00;99.90
52609;DHT22;38503;48.544;12.142;2022-12-07T00:58:43;2.90;99.90
52609;DHT22;38503;48.544;12.142;2022-12-07T01:01:10;3.00;99.90
52609;DHT22;38503;48.544;12.142;2022-12-07T01:03:38;3.00;99.90
52609;DHT22;38503;48.544;12.142;2022-12-07T01:06:05;3.00;99.90
52609;DHT22;38503;48.544;12.142;2022-12-07T01:08:32;3.00;99.90
52609;DHT22;38503;48.544;12.142;2022-12-07T01:11:04;3.00;99.90
52609;DHT22;38503;48.544;12.142;2022-12-07T01:13:33;2.90;99.90
52609;DHT22;38503;48.544;12.142;2022-12-07T01:16:03;3.10;99.90
52609;DHT22;38503;48.544;12.142;2022-12-07T01:18:32;3.00;99.90
52609;DHT22;38503;48.544;12.142;2022-12-07T01:21:12;3.10;99.90
52609;DHT22;38503;48.544;12.142;2022-12-07T01:23:39;3.10;99.90
52609;DHT22;38503;48.544;12.142;2022-12-07T01:26:09;3.00;99.90
52609;DHT22;38503;48.544;12.142;2022-12-07T01:28:37;2.90;99.90
52609;DHT22;38503;48.544;12.142;2022-12-07T01:31:08;2.90;99.90
52609;DHT22;38503;48.544;12.142;2022-12-07T01:33:39;3.00;99.90
52609;DHT22;38503;48.544;12.142;2022-12-07T01:38:45;2.90;99.90
52609;DHT22;38503;48.544;12.142;2022-12-07T01:41:13;2.80;99.90
52609;DHT22;38503;48.544;12.142;2022-12-07T01:47:02;2.90;99.90
52609;DHT22;38503;48.544;12.142;2022-12-07T01:49:44;2.90;99.90
52609;DHT22;38503;48.544;12.142;2022-12-07T01:52:14;2.80;99.90
52609;DHT22;38503;48.544;12.142;2022-12-07T01:54:43;2.90;99.90
52609;DHT22;38503;48.544;12.142;2022-12-07T01:57:11;2.90;99.90
52609;DHT22;38503;48.544;12.142;2022-12-07T01:59:41;2.90;99.90
52609;DHT22;38503;48.544;12.142;2022-12-07T02:02:15;2.90;99.90
52609;DHT22;38503;48.544;12.142;2022-12-07T02:04:45;2.90;99.90
52609;DHT22;38503;48.544;12.142;2022-12-07T02:07:12;2.80;99.90
52609;DHT22;38503;48.544;12.142;2022-12-07T02:09:39;2.80;99.90
52609;DHT22;38503;48.544;12.142;2022-12-07T02:12:06;2.90;99.90
52609;DHT22;38503;48.544;12.142;2022-12-07T02:14:33;2.90;99.90
52609;DHT22;38503;48.544;12.142;2022-12-07T02:17:07;2.90;99.90
52609;DHT22;38503;48.544;12.142;2022-12-07T02:20:19;2.90;99.90
52609;DHT22;38503;48.544;12.142;2022-12-07T02:30:08;2.90;99.90
52609;DHT22;38503;48.544;12.142;2022-12-07T02:35:30;2.90;99.90
52609;DHT22;38503;48.544;12.142;2022-12-07T02:40:36;2.70;99.90
52609;DHT22;38503;48.544;12.142;2022-12-07T02:43:21;2.70;99.90
52609;DHT22;38503;48.544;12.142;2022-12-07T02:45:52;2.70;99.90
52609;DHT22;38503;48.544;12.142;2022-12-07T02:48:21;2.70;99.90
52609;DHT22;38503;48.544;12.142;2022-12-07T02:50:49;2.60;99.90
52609;DHT22;38503;48.544;12.142;2022-12-07T02:53:30;2.70;99.90
52609;DHT22;38503;48.544;12.142;2022-12-07T02:55:58;2.70;99.90
52609;DHT22;38503;48.544;12.142;2022-12-07T03:06:45;2.60;99.90
52609;DHT22;38503;48.544;12.142;2022-12-07T03:09:36;2.60;99.90
52609;DHT22;38503;48.544;12.142;2022-12-07T03:12:13;2.70;99.90
52609;DHT22;38503;48.544;12.142;2022-12-07T03:14:49;2.60;99.90
52609;DHT22;38503;48.544;12.142;2022-12-07T03:17:28;2.50;99.90
52609;DHT22;38503;48.544;12.142;2022-12-07T03:20:00;2.50;99.90
52609;DHT22;38503;48.544;12.142;2022-12-07T03:22:31;2.50;99.90
52609;DHT22;38503;48.544;12.142;2022-12-07T03:25:04;2.50;99.90
52609;DHT22;38503;48.544;12.142;2022-12-07T03:27:35;2.40;99.90
52609;DHT22;38503;48.544;12.142;2022-12-07T03:30:04;2.40;99.90
52609;DHT22;38503;48.544;12.142;2022-12-07T03:32:50;2.40;99.90
52609;DHT22;38503;48.544;12.142;2022-12-07T03:35:27;2.30;99.90
52609;DHT22;38503;48.544;12.142;2022-12-07T03:38:22;2.40;99.90
52609;DHT22;38503;48.544;12.142;2022-12-07T03:41:00;2.40;99.90
52609;DHT22;38503;48.544;12.142;2022-12-07T03:43:29;2.40;99.90
52609;DHT22;38503;48.544;12.142;2022-12-07T03:46:19;2.40;99.90
52609;DHT22;38503;48.544;12.142;2022-12-07T03:51:40;2.30;99.90
52609;DHT22;38503;48.544;12.142;2022-12-07T03:56:41;2.30;99.90
52609;DHT22;38503;48.544;12.142;2022-12-07T03:59:09;2.30;99.90
52609;DHT22;38503;48.544;12.142;2022-12-07T04:01:36;2.30;99.90
52609;DHT22;38503;48.544;12.142;2022-12-07T04:04:03;2.40;99.90
52609;DHT22;38503;48.544;12.142;2022-12-07T04:06:30;2.40;99.90
52609;DHT22;38503;48.544;12.142;2022-12-07T04:08:57;2.30;99.90
52609;DHT22;38503;48.544;12.142;2022-12-07T04:11:24;2.30;99.90
52609;DHT22;38503;48.544;12.142;2022-12-07T04:13:50;2.30;99.90
52609;DHT22;38503;48.544;12.142;2022-12-07T04:16:36;2.30;99.90
52609;DHT22;38503;48.544;12.142;2022-12-07T04:19:09;2.30;99.90
52609;DHT22;38503;48.544;12.142;2022-12-07T04:21:36;2.30;99.90
52609;DHT22;38503;48.544;12.142;2022-12-07T04:24:04;2.30;99.90
52609;DHT22;38503;48.544;12.142;2022-12-07T04:26:31;2.30;99.90
52609;DHT22;38503;48.544;12.142;2022-12-07T04:28:58;2.20;99.90
52609;DHT22;38503;48.544;12.142;2022-12-07T04:31:34;2.20;99.90
52609;DHT22;38503;48.544;12.142;2022-12-07T04:34:01;2.20;99.90
52609;DHT22;38503;48.544;12.142;2022-12-07T04:36:29;2.20;99.90
52609;DHT22;38503;48.544;12.142;2022-12-07T04:38:56;2.20;99.90
52609;DHT22;38503;48.544;12.142;2022-12-07T04:41:24;2.20;99.90
52609;DHT22;38503;48.544;12.142;2022-12-07T04:43:54;2.20;99.90
52609;DHT22;38503;48.544;12.142;2022-12-07T04:46:23;2.20;99.90
52609;DHT22;38503;48.544;12.142;2022-12-07T04:48:51;2.20;99.90
52609;DHT22;38503;48.544;12.142;2022-12-07T04:51:21;2.20;99.90
52609;DHT22;38503;48.544;12.142;2022-12-07T04:53:48;2.20;99.90
52609;DHT22;38503;48.544;12.142;2022-12-07T04:56:16;2.20;99.90
52609;DHT22;38503;48.544;12.142;2022-12-07T04:58:44;2.20;99.90
52609;DHT22;38503;48.544;12.142;2022-12-07T05:01:12;2.10;99.90
52609;DHT22;38503;48.544;12.142;2022-12-07T05:03:39;2.10;99.90
52609;DHT22;38503;48.544;12.142;2022-12-07T05:06:07;2.10;99.90
52609;DHT22;38503;48.544;12.142;2022-12-07T05:08:39;2.20;99.90
52609;DHT22;38503;48.544;12.142;2022-12-07T05:11:07;2.20;99.90
52609;DHT22;38503;48.544;12.142;2022-12-07T05:13:35;2.10;99.90
52609;DHT22;38503;48.544;12.142;2022-12-07T05:16:02;2.20;99.90
52609;DHT22;38503;48.544;12.142;2022-12-07T05:18:29;2.20;99.90
52609;DHT22;38503;48.544;12.142;2022-12-07T05:20:56;2.20;99.90
52609;DHT22;38503;48.544;12.142;2022-12-07T05:23:23;2.20;99.90
52609;DHT22;38503;48.544;12.142;2022-12-07T05:25:50;2.20;99.90
52609;DHT22;38503;48.544;12.142;2022-12-07T05:28:17;2.20;99.90
52609;DHT22;38503;48.544;12.142;2022-12-07T05:30:44;2.20;99.90
52609;DHT22;38503;48.544;12.142;2022-12-07T05:33:11;2.20;99.90
52609;DHT22;38503;48.544;12.142;2022-12-07T05:35:37;2.20;99.90
52609;DHT22;38503;48.544;12.142;2022-12-07T05:38:05;2.20;99.90
52609;DHT22;38503;48.544;12.142;2022-12-07T05:40:32;2.10;99.90
52609;DHT22;38503;48.544;12.142;2022-12-07T05:42:59;2.10;99.90
52609;DHT22;38503;48.544;12.142;2022-12-07T05:45:30;2.20;99.90
52609;DHT22;38503;48.544;12.142;2022-12-07T05:47:57;2.10;99.90
52609;DHT22;38503;48.544;12.142;2022-12-07T05:50:24;2.10;99.90
52609;DHT22;38503;48.544;12.142;2022-12-07T05:52:51;2.00;99.90
52609;DHT22;38503;48.544;12.142;2022-12-07T05:55:18;2.10;99.90
52609;DHT22;38503;48.544;12.142;2022-12-07T05:57:45;2.10;99.90
52609;DHT22;38503;48.544;12.142;2022-12-07T06:00:32;2.10;99.90
52609;DHT22;38503;48.544;12.142;2022-12-07T06:02:59;2.10;99.90
52609;DHT22;38503;48.544;12.142;2022-12-07T06:05:26;2.10;99.90
52609;DHT22;38503;48.544;12.142;2022-12-07T06:07:53;2.20;99.90
52609;DHT22;38503;48.544;12.142;2022-12-07T06:10:20;2.00;99.90
52609;DHT22;38503;48.544;12.142;2022-12-07T06:12:47;2.00;99.90
52609;DHT22;38503;48.544;12.142;2022-12-07T06:15:14;2.00;99.90
52609;DHT22;38503;48.544;12.142;2022-12-07T06:17:41;1.90;99.90
52609;DHT22;38503;48.544;12.142;2022-12-07T06:20:08;1.90;99.90
52609;DHT22;38503;48.544;12.142;2022-12-07T06:22:35;1.80;99.90
52609;DHT22;38503;48.544;12.142;2022-12-07T06:25:01;1.60;99.90
52609;DHT22;38503;48.544;12.142;2022-12-07T06:27:34;1.70;99.90
52609;DHT22;38503;48.544;12.142;2022-12-07T06:30:02;1.60;99.90
52609;DHT22;38503;48.544;12.142;2022-12-07T06:32:33;1.50;99.90
52609;DHT22;38503;48.544;12.142;2022-12-07T06:35:00;1.50;99.90
52609;DHT22;38503;48.544;12.142;2022-12-07T06:37:27;1.40;99.90
52609;DHT22;38503;48.544;12.142;2022-12-07T06:39:54;1.30;99.90
52609;DHT22;38503;48.544;12.142;2022-12-07T06:42:21;1.30;99.90
52609;DHT22;38503;48.544;12.142;2022-12-07T06:44:48;1.30;99.90
52609;DHT22;38503;48.544;12.142;2022-12-07T06:47:15;1.30;99.90
52609;DHT22;38503;48.544;12.142;2022-12-07T06:50:02;1.40;99.90
52609;DHT22;38503;48.544;12.142;2022-12-07T06:52:30;1.30;99.90
52609;DHT22;38503;48.544;12.142;2022-12-07T06:54:57;1.40;99.90
52609;DHT22;38503;48.544;12.142;2022-12-07T06:57:26;1.30;99.90
52609;DHT22;38503;48.544;12.142;2022-12-07T06:59:53;1.30;99.90
52609;DHT22;38503;48.544;12.142;2022-12-07T07:02:20;1.20;99.90
52609;DHT22;38503;48.544;12.142;2022-12-07T07:04:46;1.20;99.90
52609;DHT22;38503;48.544;12.142;2022-12-07T07:07:13;1.20;99.90
52609;DHT22;38503;48.544;12.142;2022-12-07T07:09:40;1.20;99.90
52609;DHT22;38503;48.544;12.142;2022-12-07T07:12:07;1.10;99.90
52609;DHT22;38503;48.544;12.142;2022-12-07T07:14:34;1.10;99.90
52609;DHT22;38503;48.544;12.142;2022-12-07T07:17:01;1.20;99.90
52609;DHT22;38503;48.544;12.142;2022-12-07T07:19:28;1.10;99.90
52609;DHT22;38503;48.544;12.142;2022-12-07T07:21:55;1.20;99.90
52609;DHT22;38503;48.544;12.142;2022-12-07T07:24:22;1.20;99.90
52609;DHT22;38503;48.544;12.142;2022-12-07T07:26:49;1.20;99.90
52609;DHT22;38503;48.544;12.142;2022-12-07T07:29:16;1.20;99.90
52609;DHT22;38503;48.544;12.142;2022-12-07T07:31:42;1.20;99.90
52609;DHT22;38503;48.544;12.142;2022-12-07T07:34:09;1.40;99.90
52609;DHT22;38503;48.544;12.142;2022-12-07T07:36:36;1.60;99.90
52609;DHT22;38503;48.544;12.142;2022-12-07T07:39:03;1.80;99.90
52609;DHT22;38503;48.544;12.142;2022-12-07T07:41:30;2.00;99.90
52609;DHT22;38503;48.544;12.142;2022-12-07T07:43:57;2.30;99.90
52609;DHT22;38503;48.544;12.142;2022-12-07T07:46:24;2.50;99.90
52609;DHT22;38503;48.544;12.142;2022-12-07T07:48:51;2.80;99.90
52609;DHT22;38503;48.544;12.142;2022-12-07T07:51:18;3.40;99.90
52609;DHT22;38503;48.544;12.142;2022-12-07T07:53:45;4.60;99.90
52609;DHT22;38503;48.544;12.142;2022-12-07T07:56:12;5.30;99.90
52609;DHT22;38503;48.544;12.142;2022-12-07T07:58:39;5.70;99.90
52609;DHT22;38503;48.544;12.142;2022-12-07T08:01:06;5.70;99.90
52609;DHT22;38503;48.544;12.142;2022-12-07T08:03:34;5.00;99.90
52609;DHT22;38503;48.544;12.142;2022-12-07T08:06:03;4.30;99.90
52609;DHT22;38503;48.544;12.142;2022-12-07T08:08:30;3.90;99.90
52609;DHT22;38503;48.544;12.142;2022-12-07T08:10:57;3.80;99.90
52609;DHT22;38503;48.544;12.142;2022-12-07T08:13:26;3.70;99.90
52609;DHT22;38503;48.544;12.142;2022-12-07T08:15:57;3.60;99.90
52609;DHT22;38503;48.544;12.142;2022-12-07T08:18:24;3.30;99.90
52609;DHT22;38503;48.544;12.142;2022-12-07T08:20:51;3.30;99.90
52609;DHT22;38503;48.544;12.142;2022-12-07T08:23:18;3.20;99.90
52609;DHT22;38503;48.544;12.142;2022-12-07T08:25:45;3.20;99.90
52609;DHT22;38503;48.544;12.142;2022-12-07T08:28:12;3.20;99.90
52609;DHT22;38503;48.544;12.142;2022-12-07T08:30:39;3.40;99.90
52609;DHT22;38503;48.544;12.142;2022-12-07T08:33:06;3.80;99.90
52609;DHT22;38503;48.544;12.142;2022-12-07T08:35:33;4.80;99.90
52609;DHT22;38503;48.544;12.142;2022-12-07T08:38:00;5.30;99.90
52609;DHT22;38503;48.544;12.142;2022-12-07T08:40:29;5.90;99.90
52609;DHT22;38503;48.544;12.142;2022-12-07T08:42:56;7.30;99.90
52609;DHT22;38503;48.544;12.142;2022-12-07T08:45:23;7.70;99.90
52609;DHT22;38503;48.544;12.142;2022-12-07T08:48:12;7.90;99.90
52609;DHT22;38503;48.544;12.142;2022-12-07T08:50:40;6.60;99.90
52609;DHT22;38503;48.544;12.142;2022-12-07T08:53:15;5.10;99.90
52609;DHT22;38503;48.544;12.142;2022-12-07T08:55:46;4.90;99.90
52609;DHT22;38503;48.544;12.142;2022-12-07T08:58:13;4.80;99.90
52609;DHT22;38503;48.544;12.142;2022-12-07T09:00:40;4.90;99.90
52609;DHT22;38503;48.544;12.142;2022-12-07T09:03:07;4.90;99.90
52609;DHT22;38503;48.544;12.142;2022-12-07T09:05:34;4.60;99.90
52609;DHT22;38503;48.544;12.142;2022-12-07T09:08:01;4.50;99.90
52609;DHT22;38503;48.544;12.142;2022-12-07T09:10:29;4.50;99.90
52609;DHT22;38503;48.544;12.142;2022-12-07T09:12:56;4.60;99.90
52609;DHT22;38503;48.544;12.142;2022-12-07T09:15:30;4.70;99.90
52609;DHT22;38503;48.544;12.142;2022-12-07T09:17:58;5.00;99.90
52609;DHT22;38503;48.544;12.142;2022-12-07T09:20:25;5.30;99.90
52609;DHT22;38503;48.544;12.142;2022-12-07T09:22:54;6.20;99.90
52609;DHT22;38503;48.544;12.142;2022-12-07T09:25:20;6.80;99.90
52609;DHT22;38503;48.544;12.142;2022-12-07T09:27:48;7.60;99.90
52609;DHT22;38503;48.544;12.142;2022-12-07T09:30:14;8.40;99.90
52609;DHT22;38503;48.544;12.142;2022-12-07T09:32:41;8.10;99.90
52609;DHT22;38503;48.544;12.142;2022-12-07T09:35:08;7.70;99.90
52609;DHT22;38503;48.544;12.142;2022-12-07T09:37:36;7.90;99.90
52609;DHT22;38503;48.544;12.142;2022-12-07T09:40:04;7.60;99.90
52609;DHT22;38503;48.544;12.142;2022-12-07T09:42:40;8.50;99.90
52609;DHT22;38503;48.544;12.142;2022-12-07T09:45:13;7.70;99.90
52609;DHT22;38503;48.544;12.142;2022-12-07T09:47:41;7.80;99.90
52609;DHT22;38503;48.544;12.142;2022-12-07T09:50:17;7.90;99.90
52609;DHT22;38503;48.544;12.142;2022-12-07T09:52:47;7.50;99.90
52609;DHT22;38503;48.544;12.142;2022-12-07T09:55:19;7.10;99.90
52609;DHT22;38503;48.544;12.142;2022-12-07T09:57:48;7.20;99.90
52609;DHT22;38503;48.544;12.142;2022-12-07T10:00:18;6.90;99.90
52609;DHT22;38503;48.544;12.142;2022-12-07T10:03:00;7.00;99.90
52609;DHT22;38503;48.544;12.142;2022-12-07T10:05:30;6.80;99.90
52609;DHT22;38503;48.544;12.142;2022-12-07T10:07:59;6.60;99.90
52609;DHT22;38503;48.544;12.142;2022-12-07T10:10:31;6.70;99.90
52609;DHT22;38503;48.544;12.142;2022-12-07T10:13:05;6.10;99.90
52609;DHT22;38503;48.544;12.142;2022-12-07T10:15:46;5.90;99.90
52609;DHT22;38503;48.544;12.142;2022-12-07T10:18:26;6.20;99.90
52609;DHT22;38503;48.544;12.142;2022-12-07T10:21:25;5.90;99.90
52609;DHT22;38503;48.544;12.142;2022-12-07T10:24:25;6.00;99.90
52609;DHT22;38503;48.544;12.142;2022-12-07T10:26:52;5.70;99.90
52609;DHT22;38503;48.544;12.142;2022-12-07T10:29:32;5.90;99.90
52609;DHT22;38503;48.544;12.142;2022-12-07T10:42:24;5.10;99.90
52609;DHT22;38503;48.544;12.142;2022-12-07T10:45:24;5.50;99.90
52609;DHT22;38503;48.544;12.142;2022-12-07T11:02:07;7.90;98.70
52609;DHT22;38503;48.544;12.142;2022-12-07T11:17:56;7.40;97.90
52609;DHT22;38503;48.544;12.142;2022-12-07T11:24:06;7.20;99.50
52609;DHT22;38503;48.544;12.142;2022-12-07T11:35:08;6.60;99.90
52609;DHT22;38503;48.544;12.142;2022-12-07T11:37:38;6.00;99.90
52609;DHT22;38503;48.544;12.142;2022-12-07T11:45:42;5.60;99.90
52609;DHT22;38503;48.544;12.142;2022-12-07T11:48:12;5.70;99.90
52609;DHT22;38503;48.544;12.142;2022-12-07T11:50:43;5.70;99.90
52609;DHT22;38503;48.544;12.142;2022-12-07T11:53:18;5.80;99.90
52609;DHT22;38503;48.544;12.142;2022-12-07T11:56:03;5.80;99.90
52609;DHT22;38503;48.544;12.142;2022-12-07T11:58:46;5.70;99.90
52609;DHT22;38503;48.544;12.142;2022-12-07T12:06:44;5.40;99.90
52609;DHT22;38503;48.544;12.142;2022-12-07T12:09:30;5.20;99.90
52609;DHT22;38503;48.544;12.142;2022-12-07T12:23:07;4.70;99.90
52609;DHT22;38503;48.544;12.142;2022-12-07T12:25:40;4.70;99.90
52609;DHT22;38503;48.544;12.142;2022-12-07T12:28:31;4.70;99.90
52609;DHT22;38503;48.544;12.142;2022-12-07T12:33:37;4.50;99.90
52609;DHT22;38503;48.544;12.142;2022-12-07T12:54:38;4.60;99.90
52609;DHT22;38503;48.544;12.142;2022-12-07T12:59:36;4.60;99.90
52609;DHT22;38503;48.544;12.142;2022-12-07T13:10:36;4.30;99.90
52609;DHT22;38503;48.544;12.142;2022-12-07T13:15:54;4.30;99.90
52609;DHT22;38503;48.544;12.142;2022-12-07T13:21:01;4.10;99.90
52609;DHT22;38503;48.544;12.142;2022-12-07T13:29:14;4.20;99.90
52609;DHT22;38503;48.544;12.142;2022-12-07T13:34:35;4.20;99.90
52609;DHT22;38503;48.544;12.142;2022-12-07T13:37:15;4.20;99.90
52609;DHT22;38503;48.544;12.142;2022-12-07T13:42:34;4.20;99.90
52609;DHT22;38503;48.544;12.142;2022-12-07T13:45:24;4.30;99.90
52609;DHT22;38503;48.544;12.142;2022-12-07T13:48:42;4.20;99.90
52609;DHT22;38503;48.544;12.142;2022-12-07T13:51:26;4.10;99.90
52609;DHT22;38503;48.544;12.142;2022-12-07T13:53:57;4.10;99.90
52609;DHT22;38503;48.544;12.142;2022-12-07T13:56:33;4.00;99.90
52609;DHT22;38503;48.544;12.142;2022-12-07T13:59:01;4.10;99.90
52609;DHT22;38503;48.544;12.142;2022-12-07T14:01:31;4.00;99.90
52609;DHT22;38503;48.544;12.142;2022-12-07T14:06:49;3.90;99.90
52609;DHT22;38503;48.544;12.142;2022-12-07T14:09:22;3.90;99.90
52609;DHT22;38503;48.544;12.142;2022-12-07T14:11:50;4.00;99.90
52609;DHT22;38503;48.544;12.142;2022-12-07T14:14:21;4.00;99.90
52609;DHT22;38503;48.544;12.142;2022-12-07T14:22:35;4.10;99.90
52609;DHT22;38503;48.544;12.142;2022-12-07T14:25:17;4.10;99.90
52609;DHT22;38503;48.544;12.142;2022-12-07T14:27:59;4.10;99.90
52609;DHT22;38503;48.544;12.142;2022-12-07T14:30:31;4.00;99.90
52609;DHT22;38503;48.544;12.142;2022-12-07T14:33:02;4.00;99.90
52609;DHT22;38503;48.544;12.142;2022-12-07T14:35:30;3.90;99.90
52609;DHT22;38503;48.544;12.142;2022-12-07T14:37:58;3.90;99.90
52609;DHT22;38503;48.544;12.142;2022-12-07T14:40:27;3.90;99.90
52609;DHT22;38503;48.544;12.142;2022-12-07T14:43:00;3.80;99.90
52609;DHT22;38503;48.544;12.142;2022-12-07T14:45:28;3.80;99.90
52609;DHT22;38503;48.544;12.142;2022-12-07T14:47:54;3.80;99.90
52609;DHT22;38503;48.544;12.142;2022-12-07T14:50:49;3.80;99.90
52609;DHT22;38503;48.544;12.142;2022-12-07T14:53:44;3.70;99.90
52609;DHT22;38503;48.544;12.142;2022-12-07T14:56:20;3.70;99.90
52609;DHT22;38503;48.544;12.142;2022-12-07T14:58:46;3.70;99.90
52609;DHT22;38503;48.544;12.142;2022-12-07T15:01:14;3.70;99.90
52609;DHT22;38503;48.544;12.142;2022-12-07T15:03:41;3.60;99.90
52609;DHT22;38503;48.544;12.142;2022-12-07T15:06:14;3.60;99.90
52609;DHT22;38503;48.544;12.142;2022-12-07T15:08:41;3.60;99.90
52609;DHT22;38503;48.544;12.142;2022-12-07T15:11:13;3.60;99.90
52609;DHT22;38503;48.544;12.142;2022-12-07T15:13:40;3.60;99.90
52609;DHT22;38503;48.544;12.142;2022-12-07T15:16:25;3.60;99.90
52609;DHT22;38503;48.544;12.142;2022-12-07T15:19:17;3.50;99.90
52609;DHT22;38503;48.544;12.142;2022-12-07T15:21:54;3.50;99.90
52609;DHT22;38503;48.544;12.142;2022-12-07T15:24:21;3.40;99.90
52609;DHT22;38503;48.544;12.142;2022-12-07T15:26:50;3.50;99.90
52609;DHT22;38503;48.544;12.142;2022-12-07T15:29:17;3.50;99.90
52609;DHT22;38503;48.544;12.142;2022-12-07T15:31:51;3.50;99.90
52609;DHT22;38503;48.544;12.142;2022-12-07T15:34:25;3.40;99.90
52609;DHT22;38503;48.544;12.142;2022-12-07T15:36:53;3.40;99.90
52609;DHT22;38503;48.544;12.142;2022-12-07T15:39:20;3.40;99.90
52609;DHT22;38503;48.544;12.142;2022-12-07T15:41:48;3.40;99.90
52609;DHT22;38503;48.544;12.142;2022-12-07T15:44:15;3.40;99.90
52609;DHT22;38503;48.544;12.142;2022-12-07T15:47:00;3.40;99.90
52609;DHT22;38503;48.544;12.142;2022-12-07T15:49:27;3.40;99.90
52609;DHT22;38503;48.544;12.142;2022-12-07T15:51:54;3.30;99.90
52609;DHT22;38503;48.544;12.142;2022-12-07T15:54:26;3.40;99.90
52609;DHT22;38503;48.544;12.142;2022-12-07T15:56:54;3.40;99.90
52609;DHT22;38503;48.544;12.142;2022-12-07T15:59:22;3.30;99.90
52609;DHT22;38503;48.544;12.142;2022-12-07T16:01:49;3.30;99.90
52609;DHT22;38503;48.544;12.142;2022-12-07T16:04:16;3.30;99.90
52609;DHT22;38503;48.544;12.142;2022-12-07T16:06:43;3.30;99.90
52609;DHT22;38503;48.544;12.142;2022-12-07T16:09:11;3.30;99.90
52609;DHT22;38503;48.544;12.142;2022-12-07T16:11:37;3.30;99.90
52609;DHT22;38503;48.544;12.142;2022-12-07T16:14:04;3.30;99.90
52609;DHT22;38503;48.544;12.142;2022-12-07T16:16:31;3.30;99.90
52609;DHT22;38503;48.544;12.142;2022-12-07T16:18:58;3.20;99.90
52609;DHT22;38503;48.544;12.142;2022-12-07T16:21:25;3.20;99.90
52609;DHT22;38503;48.544;12.142;2022-12-07T16:23:52;3.20;99.90
52609;DHT22;38503;48.544;12.142;2022-12-07T16:26:21;3.20;99.90
52609;DHT22;38503;48.544;12.142;2022-12-07T16:28:50;3.20;99.90
52609;DHT22;38503;48.544;12.142;2022-12-07T16:31:20;3.30;99.90
52609;DHT22;38503;48.544;12.142;2022-12-07T16:33:47;3.20;99.90
52609;DHT22;38503;48.544;12.142;2022-12-07T16:36:16;3.30;99.90
52609;DHT22;38503;48.544;12.142;2022-12-07T16:39:04;3.30;99.90
52609;DHT22;38503;48.544;12.142;2022-12-07T16:41:31;3.30;99.90
52609;DHT22;38503;48.544;12.142;2022-12-07T16:44:03;3.30;99.90
52609;DHT22;38503;48.544;12.142;2022-12-07T16:46:34;3.30;99.90
52609;DHT22;38503;48.544;12.142;2022-12-07T16:49:03;3.30;99.90
52609;DHT22;38503;48.544;12.142;2022-12-07T16:51:31;3.30;99.90
52609;DHT22;38503;48.544;12.142;2022-12-07T16:53:58;3.30;99.90
52609;DHT22;38503;48.544;12.142;2022-12-07T16:56:25;3.30;99.90
52609;DHT22;38503;48.544;12.142;2022-12-07T16:58:53;3.30;99.90
52609;DHT22;38503;48.544;12.142;2022-12-07T17:01:22;3.40;99.90
52609;DHT22;38503;48.544;12.142;2022-12-07T17:03:49;3.40;99.90
52609;DHT22;38503;48.544;12.142;2022-12-07T17:06:19;3.40;99.90
52609;DHT22;38503;48.544;12.142;2022-12-07T17:08:48;3.40;99.90
52609;DHT22;38503;48.544;12.142;2022-12-07T17:11:20;3.30;99.90
52609;DHT22;38503;48.544;12.142;2022-12-07T17:13:48;3.30;99.90
52609;DHT22;38503;48.544;12.142;2022-12-07T17:16:34;3.30;99.90
52609;DHT22;38503;48.544;12.142;2022-12-07T17:19:06;3.30;99.90
52609;DHT22;38503;48.544;12.142;2022-12-07T17:21:34;3.30;99.90
52609;DHT22;38503;48.544;12.142;2022-12-07T17:24:02;3.30;99.90
52609;DHT22;38503;48.544;12.142;2022-12-07T17:26:29;3.40;99.90
52609;DHT22;38503;48.544;12.142;2022-12-07T17:29:02;3.40;99.90
52609;DHT22;38503;48.544;12.142;2022-12-07T17:31:30;3.50;99.90
52609;DHT22;38503;48.544;12.142;2022-12-07T17:33:57;3.60;99.90
52609;DHT22;38503;48.544;12.142;2022-12-07T17:36:26;3.50;99.90
52609;DHT22;38503;48.544;12.142;2022-12-07T17:38:54;3.40;99.90
52609;DHT22;38503;48.544;12.142;2022-12-07T17:41:23;3.40;99.90
52609;DHT22;38503;48.544;12.142;2022-12-07T17:44:14;3.30;99.90
52609;DHT22;38503;48.544;12.142;2022-12-07T17:46:41;3.30;99.90
52609;DHT22;38503;48.544;12.142;2022-12-07T17:49:08;3.30;99.90
52609;DHT22;38503;48.544;12.142;2022-12-07T17:51:35;3.20;99.90
52609;DHT22;38503;48.544;12.142;2022-12-07T17:54:21;3.20;99.90
52609;DHT22;38503;48.544;12.142;2022-12-07T17:56:48;3.20;99.90
52609;DHT22;38503;48.544;12.142;2022-12-07T17:59:15;3.20;99.90
52609;DHT22;38503;48.544;12.142;2022-12-07T18:01:42;3.20;99.90
52609;DHT22;38503;48.544;12.142;2022-12-07T18:04:10;3.20;99.90
52609;DHT22;38503;48.544;12.142;2022-12-07T18:06:37;3.20;99.90
52609;DHT22;38503;48.544;12.142;2022-12-07T18:09:04;3.20;99.90
52609;DHT22;38503;48.544;12.142;2022-12-07T18:11:32;3.20;99.90
52609;DHT22;38503;48.544;12.142;2022-12-07T18:13:59;3.20;99.90
52609;DHT22;38503;48.544;12.142;2022-12-07T18:16:28;3.30;99.90
52609;DHT22;38503;48.544;12.142;2022-12-07T18:19:03;3.20;99.90
52609;DHT22;38503;48.544;12.142;2022-12-07T18:21:31;3.20;99.90
52609;DHT22;38503;48.544;12.142;2022-12-07T18:24:00;3.10;99.90
52609;DHT22;38503;48.544;12.142;2022-12-07T18:26:30;3.20;99.90
52609;DHT22;38503;48.544;12.142;2022-12-07T18:29:01;3.20;99.90
52609;DHT22;38503;48.544;12.142;2022-12-07T18:31:28;3.10;99.90
52609;DHT22;38503;48.544;12.142;2022-12-07T18:33:58;3.10;99.90